Home > Products > Valid Products > MTR

000
SAUS44 KLCH 302255
MTRP92
METAR KP92 302253Z AUTO 00000KT 22/11 A3003 RMK AO1 SLP167 T02170106





000
SAUS44 KLCH 302154
MTRP92
METAR KP92 302153Z AUTO VRB04KT 24/08 A3002 RMK AO1 SLP164 T02390078





000
SAUS44 KLCH 302154
MTRP92
METAR KP92 302153Z AUTO VRB04KT 24/08 A3002 RMK AO1 SLP164 T02390078





000
SAUS44 KLCH 302054
MTRP92
METAR KP92 302053Z AUTO 26003KT 24/09 A3003 RMK AO1 SLP168 T02440094
56016





000
SAUS44 KLCH 301954
MTRP92
METAR KP92 301953Z AUTO VRB04KT 24/08 A3003 RMK AO1 SLP170 T02440078





000
SAUS44 KLCH 301854
MTRP92
METAR KP92 301853Z AUTO 35006KT 24/08 A3005 RMK AO1 SLP176 T02390083





000
SAUS44 KLCH 301754
MTRP92
METAR KP92 301753Z AUTO VRB04KT 23/10 A3008 RMK AO1 SLP184 T02330100
10239 20150 58010





000
SAUS44 KLCH 301654
MTRP92
METAR KP92 301653Z AUTO VRB06KT 23/11 A3010 RMK AO1 SLP192 T02280111





000
SAUS44 KLCH 301654
MTRP92
METAR KP92 301653Z AUTO VRB06KT 23/11 A3010 RMK AO1 SLP192 T02280111





000
SAUS44 KLCH 301555
MTRP92
METAR KP92 301553Z AUTO VRB04KT 21/11 A3011 RMK AO1 SLP195 T02110111





000
SAUS44 KLCH 301454
MTRP92
METAR KP92 301453Z AUTO VRB05KT 19/12 A3011 RMK AO1 SLP194 T01940117
51012





000
SAUS44 KLCH 301354
MTRP92
METAR KP92 301353Z AUTO VRB04KT 17/12 A3011 RMK AO1 SLP194 T01720122





000
SAUS44 KLCH 301254
MTRP92
METAR KP92 301253Z AUTO VRB03KT 16/12 A3009 RMK AO1 SLP188 T01560122





000
SAUS44 KLCH 301154
MTRP92
METAR KP92 301153Z AUTO VRB04KT 16/13 A3007 RMK AO1 SLP182 70044
T01560128 10189 20156 53005





000
SAUS44 KLCH 301054
MTRP92
METAR KP92 301053Z AUTO 00000KT 16/13 A3006 RMK AO1 SLP180 T01560128





000
SAUS44 KLCH 301054
MTRP92
METAR KP92 301053Z AUTO 00000KT 16/13 A3006 RMK AO1 SLP180 T01560128





000
SAUS44 KLCH 300954
MTRP92
METAR KP92 300953Z AUTO VRB03KT 16/13 A3005 RMK AO1 SLP176 T01610133





000
SAUS44 KLCH 300854
MTRP92
METAR KP92 300853Z AUTO VRB04KT 17/14 A3005 RMK AO1 SLP177 T01670139
55004





000
SAUS44 KLCH 300754
MTRP92
METAR KP92 300753Z AUTO 03004KT 18/14 A3005 RMK AO1 SLP176 T01780144





000
SAUS44 KLCH 300654
MTRP92
METAR KP92 300653Z AUTO 02004KT 18/16 A3006 RMK AO1 SLP177 T01830156





000
SAUS44 KLCH 300554
MTRP92
METAR KP92 300553Z AUTO VRB03KT 19/17 A3007 RMK AO1 SLP180 60034
T01890172 10239 20189 402780189 56003





000
SAUS44 KLCH 300454
MTRP92
METAR KP92 300453Z AUTO 36004KT 19/18 A3007 RMK AO1 SLP182 T01940178





000
SAUS44 KLCH 300454
MTRP92
METAR KP92 300453Z AUTO 36004KT 19/18 A3007 RMK AO1 SLP182 T01940178





000
SAUS44 KLCH 300354
MTRP92
METAR KP92 300353Z AUTO 00000KT 20/18 A3007 RMK AO1 SLP181 T02000183





000
SAUS44 KLCH 300254
MTRP92
METAR KP92 300253Z AUTO 00000KT 21/19 A3007 RMK AO1 SLP183 60034
T02060189 51015





000
SAUS44 KLCH 300154
MTRP92
METAR KP92 300153Z AUTO 00000KT 21/19 A3007 RMK AO1 SLP182 T02110189





000
SAUS44 KLCH 300054
MTRP92
METAR KP92 300053Z AUTO 35004KT 22/20 A3006 RMK AO1 SLP179 P0034
T02220200





000
SAUS44 KLCH 292354
MTRP92
METAR KP92 292353Z AUTO 34007KT 300V360 24/22 A3003 RMK AO1 SLP168
P0010 60010 T02390217 10278 20239 53006





000
SAUS44 KLCH 292254
MTRP92
METAR KP92 292253Z AUTO 00000KT 26/22 A3001 RMK AO1 SLP163 T02610222





000
SAUS44 KLCH 292254
MTRP92
METAR KP92 292253Z AUTO 00000KT 26/22 A3001 RMK AO1 SLP163 T02610222





000
SAUS44 KLCH 292154
MTRP92
METAR KP92 292153Z AUTO 00000KT 27/22 A3001 RMK AO1 SLP162 T02670222





000
SAUS44 KLCH 292054
MTRP92
METAR KP92 292053Z AUTO 00000KT 27/22 A3001 RMK AO1 SLP162 T02720217
56022





000
SAUS44 KLCH 291954
MTRP92
METAR KP92 291953Z AUTO 25003KT 27/21 A3002 RMK AO1 SLP166 T02720211





000
SAUS44 KLCH 291854
MTRP92
METAR KP92 291853Z AUTO 27006KT 26/22 A3005 RMK AO1 SLP174 T02610222





000
SAUS44 KLCH 291754
MTRP92
METAR KP92 291753Z AUTO 26005KT 26/22 A3008 RMK AO1 SLP184 T02610222
10267 20200 58009





000
SAUS44 KLCH 291655
MTRP92
METAR KP92 291653Z AUTO 26006KT 26/22 A3010 RMK AO1 SLP192 T02610217





000
SAUS44 KLCH 291555
MTRP92
METAR KP92 291553Z AUTO 00000KT 25/21 A3011 RMK AO1 SLP196 T02500211





000
SAUS44 KLCH 291454
MTRP92
METAR KP92 291453Z AUTO 00000KT 26/22 A3010 RMK AO1 SLP193 T02560222
53014





000
SAUS44 KLCH 291354
MTRP92
METAR KP92 291353Z AUTO 00000KT 23/22 A3009 RMK AO1 SLP188 T02330217





000
SAUS44 KLCH 291254
MTRP92
METAR KP92 291253Z AUTO 00000KT 21/20 A3007 RMK AO1 SLP183 T02110200





000
SAUS44 KLCH 291158
MTRP92
METAR KP92 291153Z AUTO 00000KT 21/19 A3006 RMK AO1 SLP179 60001
70001 T02060189 10217 20200 52001





000
SAUS44 KLCH 291054
MTRP92
METAR KP92 291053Z AUTO 00000KT 21/19 A3006 RMK AO1 SLP179 T02060194





000
SAUS44 KLCH 290954
MTRP92
METAR KP92 290953Z AUTO 00000KT 20/19 A3006 RMK AO1 SLP177 T02000189





000
SAUS44 KLCH 290854
MTRP92
METAR KP92 290853Z AUTO 00000KT 20/19 A3006 RMK AO1 SLP177 60001
T02000189 58003





000
SAUS44 KLCH 290754
MTRP92
METAR KP92 290753Z AUTO 00000KT 21/19 A3006 RMK AO1 SLP178 T02060194





000
SAUS44 KLCH 290654
MTRP92
METAR KP92 290653Z AUTO 00000KT 21/19 A3007 RMK AO1 SLP180 P0001
T02110194





000
SAUS44 KLCH 290554
MTRP92
METAR KP92 290553Z AUTO 00000KT 22/20 A3007 RMK AO1 SLP181 T02170200
10244 20217 402940206 50002





000
SAUS44 KLCH 290455
MTRP92
METAR KP92 290453Z AUTO 00000KT 22/21 A3007 RMK AO1 SLP182 T02220211





000
SAUS44 KLCH 290354
MTRP92
METAR KP92 290353Z AUTO 15003KT 23/22 A3006 RMK AO1 SLP180 T02330217





000
SAUS44 KLCH 290254
MTRP92
METAR KP92 290253Z AUTO 00000KT 23/22 A3006 RMK AO1 SLP178 T02280217
53007





000
SAUS44 KLCH 290154
MTRP92
METAR KP92 290153Z AUTO 00000KT 23/21 A3005 RMK AO1 SLP176 T02330211





000
SAUS44 KLCH 290054
MTRP92
METAR KP92 290053Z AUTO 00000KT 23/21 A3004 RMK AO1 SLP173 T02330211





000
SAUS44 KLCH 282354
MTRP92
METAR KP92 282353Z AUTO 00000KT 24/21 A3004 RMK AO1 SLP171 T02440211
10294 20244 53006





000
SAUS44 KLCH 282254
MTRP92
METAR KP92 282253Z AUTO 00000KT 26/20 A3002 RMK AO1 SLP165 T02610200





000
SAUS44 KLCH 282154
MTRP92
METAR KP92 282153Z AUTO VRB03KT 28/19 A3002 RMK AO1 SLP164 T02780189





000
SAUS44 KLCH 282054
MTRP92
METAR KP92 282053Z AUTO VRB05KT 28/19 A3002 RMK AO1 SLP165 T02830189
56014





000
SAUS44 KLCH 281955
MTRP92
METAR KP92 281953Z AUTO VRB04KT 29/19 A3002 RMK AO1 SLP166 T02890189





000
SAUS44 KLCH 281854
MTRP92
METAR KP92 281853Z AUTO 13008KT 29/19 A3003 RMK AO1 SLP170 T02890189





000
SAUS44 KLCH 281754
MTRP92
METAR KP92 281753Z AUTO 13007KT 28/19 A3006 RMK AO1 SLP179 T02830189
10289 20206 58002





000
SAUS44 KLCH 281654
MTRP92
METAR KP92 281653Z AUTO 13004KT 29/20 A3008 RMK AO1 SLP184 T02890200





000
SAUS44 KLCH 281654
MTRP92
METAR KP92 281653Z AUTO 13004KT 29/20 A3008 RMK AO1 SLP184 T02890200





000
SAUS44 KLCH 281555
MTRP92
METAR KP92 281553Z AUTO 00000KT 28/21 A3008 RMK AO1 SLP185 T02780206





000
SAUS44 KLCH 281555
MTRP92
METAR KP92 281553Z AUTO 00000KT 28/21 A3008 RMK AO1 SLP185 T02780206





000
SAUS44 KLCH 281500 COR
MTRP92
METAR KP92 281453Z AUTO 13004KT 26/21 A3006 RMK AO1 SLP180 T02560211
53016





000
SAUS44 KLCH 281458 COR
MTRP92
METAR KP92 281453Z AUTO 13004KT 26/21 A3006 RMK AO1 SLP180 T02560211
53016





000
SAUS44 KLCH 281357
MTRP92
METAR KP92 281353Z AUTO 12003KT 23/21 A3005 RMK AO1 SLP175 T02330211





000
SAUS44 KLCH 281254
MTRP92
METAR KP92 281253Z AUTO 11004KT 21/19 A3002 RMK AO1 SLP166 T02110194





000
SAUS44 KLCH 281155
MTRP92
METAR KP92 281153Z AUTO 11003KT 21/19 A3002 RMK AO1 SLP164 60001
70001 T02060194 10217 20206 53009





000
SAUS44 KLCH 281054
MTRP92
METAR KP92 281053Z AUTO 12003KT 21/19 A3000 RMK AO1 SLP158 T02060194





000
SAUS44 KLCH 280954
MTRP92
METAR KP92 280953Z AUTO 12003KT 21/19 A2999 RMK AO1 SLP156 T02060194





000
SAUS44 KLCH 280954
MTRP92
METAR KP92 280953Z AUTO 12003KT 21/19 A2999 RMK AO1 SLP156 T02060194





000
SAUS44 KLCH 280854
MTRP92
METAR KP92 280853Z AUTO 12005KT 21/20 A2999 RMK AO1 SLP155 60001
T02110200 58005





000
SAUS44 KLCH 280754
MTRP92
METAR KP92 280753Z AUTO 00000KT 21/19 A3000 RMK AO1 SLP158 P0001
T02110194





000
SAUS44 KLCH 280654
MTRP92
METAR KP92 280653Z AUTO 00000KT 22/20 A3000 RMK AO1 SLP160 T02170200





000
SAUS44 KLCH 280554
MTRP92
METAR KP92 280553Z AUTO 00000KT 22/21 A3001 RMK AO1 SLP160 T02170206
10239 20217 402780172 58001





000
SAUS44 KLCH 280454
MTRP92
METAR KP92 280453Z AUTO 11003KT 22/20 A3001 RMK AO1 SLP161 T02170200





000
SAUS44 KLCH 280454
MTRP92
METAR KP92 280453Z AUTO 11003KT 22/20 A3001 RMK AO1 SLP161 T02170200





000
SAUS44 KLCH 280354
MTRP92
METAR KP92 280353Z AUTO 12003KT 22/20 A3002 RMK AO1 SLP164 T02170200





000
SAUS44 KLCH 280254
MTRP92
METAR KP92 280253Z AUTO 12003KT 22/20 A3001 RMK AO1 SLP162 T02170200
53009





000
SAUS44 KLCH 280154
MTRP92
METAR KP92 280153Z AUTO 12003KT 22/20 A3000 RMK AO1 SLP158 T02220200





000
SAUS44 KLCH 280154
MTRP92
METAR KP92 280153Z AUTO 12003KT 22/20 A3000 RMK AO1 SLP158 T02220200





000
SAUS44 KLCH 280054
MTRP92
METAR KP92 280053Z AUTO 12004KT 23/21 A2999 RMK AO1 SLP156 T02280206





000
SAUS44 KLCH 272354
MTRP92
METAR KP92 272353Z AUTO 13005KT 24/20 A2998 RMK AO1 SLP153 T02390200
10278 20239 55001





    US Dept of Commerce
    National Oceanic and Atmospheric Administration
    National Weather Service
    1325 East West Highway
    Silver Spring, MD 20910
    Page Author: NWS Internet Services Team
Disclaimer
Information Quality
Credits
Glossary
Privacy Policy
Freedom of Information Act (FOIA)
About Us
Career Opportunities